sensor_id;sensor_type;location;lat;lon;timestamp;temperature;humidity
76384;SHT30;65204;48.606;7.598;2023-04-30T00:00:14;14.88;66.35
76384;SHT30;65204;48.606;7.598;2023-04-30T00:00:45;14.87;66.36
76384;SHT30;65204;48.606;7.598;2023-04-30T00:01:15;14.88;66.36
76384;SHT30;65204;48.606;7.598;2023-04-30T00:01:45;14.91;66.35
76384;SHT30;65204;48.606;7.598;2023-04-30T00:02:16;14.91;66.45
76384;SHT30;65204;48.606;7.598;2023-04-30T00:02:46;14.92;66.36
76384;SHT30;65204;48.606;7.598;2023-04-30T00:03:16;14.90;66.25
76384;SHT30;65204;48.606;7.598;2023-04-30T00:03:46;14.91;66.14
76384;SHT30;65204;48.606;7.598;2023-04-30T00:04:17;14.90;66.18
76384;SHT30;65204;48.606;7.598;2023-04-30T00:04:47;14.92;66.14
76384;SHT30;65204;48.606;7.598;2023-04-30T00:05:17;14.94;66.15
76384;SHT30;65204;48.606;7.598;2023-04-30T00:05:51;14.94;66.23
76384;SHT30;65204;48.606;7.598;2023-04-30T00:06:21;14.91;66.18
76384;SHT30;65204;48.606;7.598;2023-04-30T00:06:52;14.88;66.51
76384;SHT30;65204;48.606;7.598;2023-04-30T00:07:22;14.90;66.30
76384;SHT30;65204;48.606;7.598;2023-04-30T00:07:53;14.91;66.24
76384;SHT30;65204;48.606;7.598;2023-04-30T00:08:23;14.90;66.23
76384;SHT30;65204;48.606;7.598;2023-04-30T00:08:53;14.92;66.31
76384;SHT30;65204;48.606;7.598;2023-04-30T00:09:24;14.90;66.20
76384;SHT30;65204;48.606;7.598;2023-04-30T00:09:54;14.94;66.12
76384;SHT30;65204;48.606;7.598;2023-04-30T00:10:24;14.94;66.20
76384;SHT30;65204;48.606;7.598;2023-04-30T00:10:55;14.91;66.23
76384;SHT30;65204;48.606;7.598;2023-04-30T00:11:25;14.90;65.94
76384;SHT30;65204;48.606;7.598;2023-04-30T00:11:55;14.90;66.04
76384;SHT30;65204;48.606;7.598;2023-04-30T00:12:26;14.94;66.15
76384;SHT30;65204;48.606;7.598;2023-04-30T00:12:56;14.88;66.22
76384;SHT30;65204;48.606;7.598;2023-04-30T00:13:26;14.90;66.10
76384;SHT30;65204;48.606;7.598;2023-04-30T00:13:57;14.87;66.11
76384;SHT30;65204;48.606;7.598;2023-04-30T00:14:27;14.91;66.22
76384;SHT30;65204;48.606;7.598;2023-04-30T00:14:57;14.91;66.19
76384;SHT30;65204;48.606;7.598;2023-04-30T00:15:28;14.91;66.12
76384;SHT30;65204;48.606;7.598;2023-04-30T00:15:58;14.87;66.10
76384;SHT30;65204;48.606;7.598;2023-04-30T00:16:29;14.88;66.10
76384;SHT30;65204;48.606;7.598;2023-04-30T00:16:59;14.90;66.20
76384;SHT30;65204;48.606;7.598;2023-04-30T00:17:30;14.87;66.40
76384;SHT30;65204;48.606;7.598;2023-04-30T00:18:00;14.90;66.16
76384;SHT30;65204;48.606;7.598;2023-04-30T00:18:31;14.88;66.09
76384;SHT30;65204;48.606;7.598;2023-04-30T00:19:01;14.90;66.32
76384;SHT30;65204;48.606;7.598;2023-04-30T00:19:31;14.88;66.25
76384;SHT30;65204;48.606;7.598;2023-04-30T00:20:02;14.91;66.20
76384;SHT30;65204;48.606;7.598;2023-04-30T00:20:32;14.92;66.13
76384;SHT30;65204;48.606;7.598;2023-04-30T00:21:05;14.92;66.21
76384;SHT30;65204;48.606;7.598;2023-04-30T00:21:36;14.95;66.18
76384;SHT30;65204;48.606;7.598;2023-04-30T00:22:07;14.94;66.25
76384;SHT30;65204;48.606;7.598;2023-04-30T00:22:37;14.95;66.10
76384;SHT30;65204;48.606;7.598;2023-04-30T00:23:07;14.94;66.18
76384;SHT30;65204;48.606;7.598;2023-04-30T00:23:38;14.92;66.14
76384;SHT30;65204;48.606;7.598;2023-04-30T00:24:08;14.91;66.09
76384;SHT30;65204;48.606;7.598;2023-04-30T00:24:38;14.91;66.05
76384;SHT30;65204;48.606;7.598;2023-04-30T00:25:09;14.87;66.00
76384;SHT30;65204;48.606;7.598;2023-04-30T00:25:39;14.88;66.01
76384;SHT30;65204;48.606;7.598;2023-04-30T00:26:09;14.81;66.10
76384;SHT30;65204;48.606;7.598;2023-04-30T00:26:40;14.85;66.11
76384;SHT30;65204;48.606;7.598;2023-04-30T00:27:11;14.87;66.23
76384;SHT30;65204;48.606;7.598;2023-04-30T00:27:42;14.85;66.29
76384;SHT30;65204;48.606;7.598;2023-04-30T00:28:12;14.87;66.40
76384;SHT30;65204;48.606;7.598;2023-04-30T00:28:42;14.88;66.33
76384;SHT30;65204;48.606;7.598;2023-04-30T00:29:12;14.87;66.11
76384;SHT30;65204;48.606;7.598;2023-04-30T00:29:43;14.83;66.00
76384;SHT30;65204;48.606;7.598;2023-04-30T00:30:13;14.83;66.07
76384;SHT30;65204;48.606;7.598;2023-04-30T00:30:44;14.84;66.13
76384;SHT30;65204;48.606;7.598;2023-04-30T00:31:14;14.81;66.22
76384;SHT30;65204;48.606;7.598;2023-04-30T00:31:45;14.80;66.36
76384;SHT30;65204;48.606;7.598;2023-04-30T00:32:15;14.83;66.31
76384;SHT30;65204;48.606;7.598;2023-04-30T00:32:45;14.79;66.25
76384;SHT30;65204;48.606;7.598;2023-04-30T00:33:16;14.81;66.25
76384;SHT30;65204;48.606;7.598;2023-04-30T00:33:46;14.81;66.20
76384;SHT30;65204;48.606;7.598;2023-04-30T00:34:16;14.81;66.17
76384;SHT30;65204;48.606;7.598;2023-04-30T00:34:47;14.80;66.14
76384;SHT30;65204;48.606;7.598;2023-04-30T00:35:17;14.81;66.17
76384;SHT30;65204;48.606;7.598;2023-04-30T00:35:47;14.81;66.25
76384;SHT30;65204;48.606;7.598;2023-04-30T00:36:18;14.79;66.29
76384;SHT30;65204;48.606;7.598;2023-04-30T00:36:48;14.79;66.36
76384;SHT30;65204;48.606;7.598;2023-04-30T00:37:18;14.79;66.31
76384;SHT30;65204;48.606;7.598;2023-04-30T00:37:49;14.77;66.28
76384;SHT30;65204;48.606;7.598;2023-04-30T00:38:19;14.77;66.35
76384;SHT30;65204;48.606;7.598;2023-04-30T00:38:49;14.79;66.51
76384;SHT30;65204;48.606;7.598;2023-04-30T00:39:20;14.77;66.42
76384;SHT30;65204;48.606;7.598;2023-04-30T00:39:50;14.71;66.69
76384;SHT30;65204;48.606;7.598;2023-04-30T00:40:20;14.76;66.65
76384;SHT30;65204;48.606;7.598;2023-04-30T00:40:51;14.67;66.48
76384;SHT30;65204;48.606;7.598;2023-04-30T00:41:21;14.70;66.65
76384;SHT30;65204;48.606;7.598;2023-04-30T00:41:52;14.67;66.82
76384;SHT30;65204;48.606;7.598;2023-04-30T00:42:22;14.60;67.02
76384;SHT30;65204;48.606;7.598;2023-04-30T00:42:53;14.66;67.01
76384;SHT30;65204;48.606;7.598;2023-04-30T00:43:24;14.61;66.85
76384;SHT30;65204;48.606;7.598;2023-04-30T00:43:55;14.66;66.76
76384;SHT30;65204;48.606;7.598;2023-04-30T00:44:25;14.64;66.90
76384;SHT30;65204;48.606;7.598;2023-04-30T00:44:55;14.69;66.89
76384;SHT30;65204;48.606;7.598;2023-04-30T00:45:26;14.69;66.92
76384;SHT30;65204;48.606;7.598;2023-04-30T00:45:56;14.69;66.86
76384;SHT30;65204;48.606;7.598;2023-04-30T00:46:27;14.73;66.89
76384;SHT30;65204;48.606;7.598;2023-04-30T00:46:58;14.73;66.81
76384;SHT30;65204;48.606;7.598;2023-04-30T00:47:28;14.73;66.74
76384;SHT30;65204;48.606;7.598;2023-04-30T00:48:01;14.71;66.66
76384;SHT30;65204;48.606;7.598;2023-04-30T00:48:32;14.77;66.68
76384;SHT30;65204;48.606;7.598;2023-04-30T00:49:02;14.76;66.50
76384;SHT30;65204;48.606;7.598;2023-04-30T00:49:34;14.80;66.54
76384;SHT30;65204;48.606;7.598;2023-04-30T00:50:04;14.79;66.61
76384;SHT30;65204;48.606;7.598;2023-04-30T00:50:35;14.71;66.56
76384;SHT30;65204;48.606;7.598;2023-04-30T00:51:06;14.79;66.65
76384;SHT30;65204;48.606;7.598;2023-04-30T00:51:39;14.73;66.56
76384;SHT30;65204;48.606;7.598;2023-04-30T00:52:10;14.76;66.47
76384;SHT30;65204;48.606;7.598;2023-04-30T00:52:41;14.76;66.49
76384;SHT30;65204;48.606;7.598;2023-04-30T00:53:12;14.74;66.54
76384;SHT30;65204;48.606;7.598;2023-04-30T00:53:42;14.77;66.60
76384;SHT30;65204;48.606;7.598;2023-04-30T00:54:13;14.77;66.62
76384;SHT30;65204;48.606;7.598;2023-04-30T00:54:44;14.83;66.42
76384;SHT30;65204;48.606;7.598;2023-04-30T00:55:14;14.80;66.39
76384;SHT30;65204;48.606;7.598;2023-04-30T00:55:45;14.80;66.30
76384;SHT30;65204;48.606;7.598;2023-04-30T00:56:16;14.83;66.41
76384;SHT30;65204;48.606;7.598;2023-04-30T00:56:46;14.81;66.42
76384;SHT30;65204;48.606;7.598;2023-04-30T00:57:17;14.81;66.59
76384;SHT30;65204;48.606;7.598;2023-04-30T00:57:48;14.79;66.69
76384;SHT30;65204;48.606;7.598;2023-04-30T00:58:19;14.81;66.54
76384;SHT30;65204;48.606;7.598;2023-04-30T00:58:49;14.79;66.56
76384;SHT30;65204;48.606;7.598;2023-04-30T00:59:23;14.80;66.61
76384;SHT30;65204;48.606;7.598;2023-04-30T00:59:54;14.83;66.36
76384;SHT30;65204;48.606;7.598;2023-04-30T01:00:26;14.80;66.29
76384;SHT30;65204;48.606;7.598;2023-04-30T01:00:56;14.83;66.24
76384;SHT30;65204;48.606;7.598;2023-04-30T01:01:27;14.80;66.33
76384;SHT30;65204;48.606;7.598;2023-04-30T01:01:58;14.76;66.38
76384;SHT30;65204;48.606;7.598;2023-04-30T01:02:29;14.76;66.45
76384;SHT30;65204;48.606;7.598;2023-04-30T01:03:00;14.76;66.36
76384;SHT30;65204;48.606;7.598;2023-04-30T01:03:31;14.80;66.40
76384;SHT30;65204;48.606;7.598;2023-04-30T01:04:01;14.80;66.40
76384;SHT30;65204;48.606;7.598;2023-04-30T01:04:32;14.80;66.46
76384;SHT30;65204;48.606;7.598;2023-04-30T01:05:03;14.79;66.47
76384;SHT30;65204;48.606;7.598;2023-04-30T01:05:33;14.80;66.47
76384;SHT30;65204;48.606;7.598;2023-04-30T01:06:04;14.83;66.62
76384;SHT30;65204;48.606;7.598;2023-04-30T01:06:34;14.83;66.49
76384;SHT30;65204;48.606;7.598;2023-04-30T01:07:05;14.83;66.37
76384;SHT30;65204;48.606;7.598;2023-04-30T01:07:36;14.83;66.35
76384;SHT30;65204;48.606;7.598;2023-04-30T01:08:09;14.84;66.34
76384;SHT30;65204;48.606;7.598;2023-04-30T01:08:39;14.85;66.43
76384;SHT30;65204;48.606;7.598;2023-04-30T01:09:10;14.84;66.46
76384;SHT30;65204;48.606;7.598;2023-04-30T01:09:40;14.79;66.45
76384;SHT30;65204;48.606;7.598;2023-04-30T01:10:14;14.80;66.42
76384;SHT30;65204;48.606;7.598;2023-04-30T01:10:52;14.77;66.68
76384;SHT30;65204;48.606;7.598;2023-04-30T01:11:33;14.74;66.77
76384;SHT30;65204;48.606;7.598;2023-04-30T01:13:48;14.69;66.92
76384;SHT30;65204;48.606;7.598;2023-04-30T01:14:27;14.73;66.67
76384;SHT30;65204;48.606;7.598;2023-04-30T01:15:45;14.73;66.54
76384;SHT30;65204;48.606;7.598;2023-04-30T01:16:24;14.73;66.59
76384;SHT30;65204;48.606;7.598;2023-04-30T01:17:08;14.67;66.77
76384;SHT30;65204;48.606;7.598;2023-04-30T01:18:08;14.70;66.81
76384;SHT30;65204;48.606;7.598;2023-04-30T01:18:48;14.60;66.93
76384;SHT30;65204;48.606;7.598;2023-04-30T01:19:57;14.67;66.83
76384;SHT30;65204;48.606;7.598;2023-04-30T01:20:29;14.64;66.90
76384;SHT30;65204;48.606;7.598;2023-04-30T01:21:03;14.63;66.90
76384;SHT30;65204;48.606;7.598;2023-04-30T01:21:37;14.64;66.77
76384;SHT30;65204;48.606;7.598;2023-04-30T01:23:19;14.60;66.78
76384;SHT30;65204;48.606;7.598;2023-04-30T01:28:20;14.51;66.98
76384;SHT30;65204;48.606;7.598;2023-04-30T01:28:52;14.50;66.95
76384;SHT30;65204;48.606;7.598;2023-04-30T01:29:23;14.49;67.06
76384;SHT30;65204;48.606;7.598;2023-04-30T01:29:55;14.50;67.05
76384;SHT30;65204;48.606;7.598;2023-04-30T01:30:26;14.50;67.18
76384;SHT30;65204;48.606;7.598;2023-04-30T01:30:57;14.51;67.23
76384;SHT30;65204;48.606;7.598;2023-04-30T01:31:28;14.50;67.23
76384;SHT30;65204;48.606;7.598;2023-04-30T01:31:58;14.49;67.23
76384;SHT30;65204;48.606;7.598;2023-04-30T01:32:28;14.50;67.34
76384;SHT30;65204;48.606;7.598;2023-04-30T01:32:59;14.51;67.29
76384;SHT30;65204;48.606;7.598;2023-04-30T01:33:29;14.53;67.18
76384;SHT30;65204;48.606;7.598;2023-04-30T01:34:00;14.55;67.13
76384;SHT30;65204;48.606;7.598;2023-04-30T01:34:30;14.55;67.00
76384;SHT30;65204;48.606;7.598;2023-04-30T01:35:00;14.50;67.07
76384;SHT30;65204;48.606;7.598;2023-04-30T01:35:34;14.50;67.34
76384;SHT30;65204;48.606;7.598;2023-04-30T01:36:10;14.49;67.22
76384;SHT30;65204;48.606;7.598;2023-04-30T01:37:58;14.50;67.12
76384;SHT30;65204;48.606;7.598;2023-04-30T01:40:47;14.44;67.30
76384;SHT30;65204;48.606;7.598;2023-04-30T01:42:07;14.37;67.32
76384;SHT30;65204;48.606;7.598;2023-04-30T01:42:44;14.39;67.37
76384;SHT30;65204;48.606;7.598;2023-04-30T01:44:16;14.36;67.52
76384;SHT30;65204;48.606;7.598;2023-04-30T01:46:00;14.32;67.73
76384;SHT30;65204;48.606;7.598;2023-04-30T01:46:33;14.33;67.78
76384;SHT30;65204;48.606;7.598;2023-04-30T01:47:10;14.30;67.77
76384;SHT30;65204;48.606;7.598;2023-04-30T01:47:54;14.30;67.71
76384;SHT30;65204;48.606;7.598;2023-04-30T01:49:02;14.33;67.83
76384;SHT30;65204;48.606;7.598;2023-04-30T01:49:31;14.26;67.80
76384;SHT30;65204;48.606;7.598;2023-04-30T01:51:59;14.25;67.96
76384;SHT30;65204;48.606;7.598;2023-04-30T01:52:53;14.25;67.93
76384;SHT30;65204;48.606;7.598;2023-04-30T01:53:31;14.26;67.87
76384;SHT30;65204;48.606;7.598;2023-04-30T01:54:08;14.23;67.89
76384;SHT30;65204;48.606;7.598;2023-04-30T01:54:51;14.29;67.91
76384;SHT30;65204;48.606;7.598;2023-04-30T01:55:36;14.30;67.99
76384;SHT30;65204;48.606;7.598;2023-04-30T01:56:17;14.30;67.79
76384;SHT30;65204;48.606;7.598;2023-04-30T01:57:02;14.26;67.81
76384;SHT30;65204;48.606;7.598;2023-04-30T01:57:38;14.29;67.80
76384;SHT30;65204;48.606;7.598;2023-04-30T01:58:11;14.28;67.82
76384;SHT30;65204;48.606;7.598;2023-04-30T01:58:43;14.30;67.78
76384;SHT30;65204;48.606;7.598;2023-04-30T01:59:15;14.32;67.72
76384;SHT30;65204;48.606;7.598;2023-04-30T01:59:46;14.32;67.48
76384;SHT30;65204;48.606;7.598;2023-04-30T02:00:16;14.28;67.46
76384;SHT30;65204;48.606;7.598;2023-04-30T02:00:47;14.30;67.61
76384;SHT30;65204;48.606;7.598;2023-04-30T02:01:31;14.28;67.68
76384;SHT30;65204;48.606;7.598;2023-04-30T02:02:02;14.29;67.71
76384;SHT30;65204;48.606;7.598;2023-04-30T02:02:32;14.30;67.55
76384;SHT30;65204;48.606;7.598;2023-04-30T02:03:02;14.30;67.65
76384;SHT30;65204;48.606;7.598;2023-04-30T02:03:33;14.30;67.60
76384;SHT30;65204;48.606;7.598;2023-04-30T02:04:03;14.33;67.53
76384;SHT30;65204;48.606;7.598;2023-04-30T02:04:34;14.30;67.49
76384;SHT30;65204;48.606;7.598;2023-04-30T02:05:05;14.32;67.48
76384;SHT30;65204;48.606;7.598;2023-04-30T02:05:36;14.26;67.50
76384;SHT30;65204;48.606;7.598;2023-04-30T02:06:06;14.25;67.50
76384;SHT30;65204;48.606;7.598;2023-04-30T02:06:37;14.30;67.51
76384;SHT30;65204;48.606;7.598;2023-04-30T02:07:07;14.26;67.71
76384;SHT30;65204;48.606;7.598;2023-04-30T02:07:41;14.26;67.79
76384;SHT30;65204;48.606;7.598;2023-04-30T02:08:12;14.28;67.72
76384;SHT30;65204;48.606;7.598;2023-04-30T02:08:43;14.26;67.61
76384;SHT30;65204;48.606;7.598;2023-04-30T02:09:13;14.23;67.69
76384;SHT30;65204;48.606;7.598;2023-04-30T02:09:44;14.25;67.63
76384;SHT30;65204;48.606;7.598;2023-04-30T02:10:16;14.28;67.59
76384;SHT30;65204;48.606;7.598;2023-04-30T02:10:46;14.20;67.87
76384;SHT30;65204;48.606;7.598;2023-04-30T02:11:17;14.06;67.86
76384;SHT30;65204;48.606;7.598;2023-04-30T02:11:47;14.05;68.37
76384;SHT30;65204;48.606;7.598;2023-04-30T02:12:17;14.09;68.17
76384;SHT30;65204;48.606;7.598;2023-04-30T02:12:47;13.95;68.38
76384;SHT30;65204;48.606;7.598;2023-04-30T02:13:18;14.09;68.59
76384;SHT30;65204;48.606;7.598;2023-04-30T02:13:48;14.10;68.34
76384;SHT30;65204;48.606;7.598;2023-04-30T02:14:19;14.13;68.28
76384;SHT30;65204;48.606;7.598;2023-04-30T02:14:49;14.13;68.06
76384;SHT30;65204;48.606;7.598;2023-04-30T02:15:19;14.12;68.11
76384;SHT30;65204;48.606;7.598;2023-04-30T02:15:50;14.16;68.09
76384;SHT30;65204;48.606;7.598;2023-04-30T02:16:20;14.18;68.12
76384;SHT30;65204;48.606;7.598;2023-04-30T02:16:50;14.20;68.11
76384;SHT30;65204;48.606;7.598;2023-04-30T02:17:21;14.20;67.99
76384;SHT30;65204;48.606;7.598;2023-04-30T02:17:51;14.20;68.08
76384;SHT30;65204;48.606;7.598;2023-04-30T02:18:22;14.22;68.01
76384;SHT30;65204;48.606;7.598;2023-04-30T02:18:52;14.22;67.98
76384;SHT30;65204;48.606;7.598;2023-04-30T02:19:22;14.25;67.99
76384;SHT30;65204;48.606;7.598;2023-04-30T02:19:53;14.28;67.92
76384;SHT30;65204;48.606;7.598;2023-04-30T02:20:23;14.23;67.89
76384;SHT30;65204;48.606;7.598;2023-04-30T02:20:53;14.25;67.70
76384;SHT30;65204;48.606;7.598;2023-04-30T02:21:24;14.23;67.87
76384;SHT30;65204;48.606;7.598;2023-04-30T02:21:54;14.25;67.79
76384;SHT30;65204;48.606;7.598;2023-04-30T02:22:25;14.23;67.75
76384;SHT30;65204;48.606;7.598;2023-04-30T02:22:55;14.25;67.78
76384;SHT30;65204;48.606;7.598;2023-04-30T02:23:26;14.23;67.70
76384;SHT30;65204;48.606;7.598;2023-04-30T02:23:56;14.26;67.78
76384;SHT30;65204;48.606;7.598;2023-04-30T02:24:26;14.25;67.76
76384;SHT30;65204;48.606;7.598;2023-04-30T02:24:56;14.25;67.75
76384;SHT30;65204;48.606;7.598;2023-04-30T02:25:27;14.22;67.81
76384;SHT30;65204;48.606;7.598;2023-04-30T02:25:57;14.23;67.88
76384;SHT30;65204;48.606;7.598;2023-04-30T02:26:27;14.22;67.92
76384;SHT30;65204;48.606;7.598;2023-04-30T02:26:58;14.09;67.74
76384;SHT30;65204;48.606;7.598;2023-04-30T02:27:30;14.13;67.97
76384;SHT30;65204;48.606;7.598;2023-04-30T02:28:00;14.09;68.11
76384;SHT30;65204;48.606;7.598;2023-04-30T02:28:31;14.09;68.02
76384;SHT30;65204;48.606;7.598;2023-04-30T02:29:01;14.06;68.13
76384;SHT30;65204;48.606;7.598;2023-04-30T02:29:31;13.99;68.24
76384;SHT30;65204;48.606;7.598;2023-04-30T02:30:02;13.99;68.46
76384;SHT30;65204;48.606;7.598;2023-04-30T02:30:33;13.99;68.37
76384;SHT30;65204;48.606;7.598;2023-04-30T02:31:03;13.96;68.55
76384;SHT30;65204;48.606;7.598;2023-04-30T02:31:34;13.98;68.42
76384;SHT30;65204;48.606;7.598;2023-04-30T02:32:04;14.01;68.27
76384;SHT30;65204;48.606;7.598;2023-04-30T02:32:35;14.01;68.13
76384;SHT30;65204;48.606;7.598;2023-04-30T02:33:05;14.04;68.19
76384;SHT30;65204;48.606;7.598;2023-04-30T02:33:36;14.04;68.17
76384;SHT30;65204;48.606;7.598;2023-04-30T02:34:06;14.04;68.34
76384;SHT30;65204;48.606;7.598;2023-04-30T02:34:36;14.04;68.34
76384;SHT30;65204;48.606;7.598;2023-04-30T02:35:07;13.98;68.39
76384;SHT30;65204;48.606;7.598;2023-04-30T02:35:39;13.98;68.45
76384;SHT30;65204;48.606;7.598;2023-04-30T02:36:10;13.99;68.53
76384;SHT30;65204;48.606;7.598;2023-04-30T02:36:40;13.94;68.46
76384;SHT30;65204;48.606;7.598;2023-04-30T02:37:10;13.92;68.30
76384;SHT30;65204;48.606;7.598;2023-04-30T02:37:41;13.90;68.46
76384;SHT30;65204;48.606;7.598;2023-04-30T02:38:11;13.89;68.50
76384;SHT30;65204;48.606;7.598;2023-04-30T02:38:42;13.85;68.57
76384;SHT30;65204;48.606;7.598;2023-04-30T02:39:12;13.83;68.65
76384;SHT30;65204;48.606;7.598;2023-04-30T02:39:43;13.86;68.66
76384;SHT30;65204;48.606;7.598;2023-04-30T02:40:13;13.92;68.55
76384;SHT30;65204;48.606;7.598;2023-04-30T02:40:43;13.89;68.51
76384;SHT30;65204;48.606;7.598;2023-04-30T02:41:14;13.90;68.60
76384;SHT30;65204;48.606;7.598;2023-04-30T02:41:44;13.92;68.46
76384;SHT30;65204;48.606;7.598;2023-04-30T02:42:14;13.95;68.33
76384;SHT30;65204;48.606;7.598;2023-04-30T02:42:45;13.89;68.42
76384;SHT30;65204;48.606;7.598;2023-04-30T02:43:15;13.95;68.51
76384;SHT30;65204;48.606;7.598;2023-04-30T02:43:45;13.95;68.57
76384;SHT30;65204;48.606;7.598;2023-04-30T02:44:16;13.83;68.44
76384;SHT30;65204;48.606;7.598;2023-04-30T02:44:46;13.89;68.45
76384;SHT30;65204;48.606;7.598;2023-04-30T02:45:16;13.90;68.46
76384;SHT30;65204;48.606;7.598;2023-04-30T02:45:47;13.86;68.65
76384;SHT30;65204;48.606;7.598;2023-04-30T02:46:17;13.89;68.55
76384;SHT30;65204;48.606;7.598;2023-04-30T02:46:48;13.82;68.52
76384;SHT30;65204;48.606;7.598;2023-04-30T02:47:18;13.92;68.55
76384;SHT30;65204;48.606;7.598;2023-04-30T02:47:48;13.94;68.35
76384;SHT30;65204;48.606;7.598;2023-04-30T02:48:19;13.94;68.39
76384;SHT30;65204;48.606;7.598;2023-04-30T02:48:49;13.95;68.49
76384;SHT30;65204;48.606;7.598;2023-04-30T02:49:20;13.95;68.43
76384;SHT30;65204;48.606;7.598;2023-04-30T02:49:50;13.86;68.31
76384;SHT30;65204;48.606;7.598;2023-04-30T02:50:20;13.88;68.42
76384;SHT30;65204;48.606;7.598;2023-04-30T02:50:51;13.94;68.42
76384;SHT30;65204;48.606;7.598;2023-04-30T02:51:21;13.96;68.46
76384;SHT30;65204;48.606;7.598;2023-04-30T02:51:52;13.98;68.36
76384;SHT30;65204;48.606;7.598;2023-04-30T02:52:22;13.99;68.40
76384;SHT30;65204;48.606;7.598;2023-04-30T02:52:53;13.96;68.35
76384;SHT30;65204;48.606;7.598;2023-04-30T02:53:25;13.94;68.26
76384;SHT30;65204;48.606;7.598;2023-04-30T02:53:55;13.96;68.34
76384;SHT30;65204;48.606;7.598;2023-04-30T02:54:25;13.98;68.33
76384;SHT30;65204;48.606;7.598;2023-04-30T02:54:56;13.95;68.39
76384;SHT30;65204;48.606;7.598;2023-04-30T02:55:26;13.99;68.43
76384;SHT30;65204;48.606;7.598;2023-04-30T02:55:56;13.95;68.46
76384;SHT30;65204;48.606;7.598;2023-04-30T02:56:28;13.98;68.46
76384;SHT30;65204;48.606;7.598;2023-04-30T02:56:58;13.96;68.42
76384;SHT30;65204;48.606;7.598;2023-04-30T02:57:28;13.99;68.33
76384;SHT30;65204;48.606;7.598;2023-04-30T02:57:59;13.99;68.31
76384;SHT30;65204;48.606;7.598;2023-04-30T02:58:29;13.99;68.39
76384;SHT30;65204;48.606;7.598;2023-04-30T02:59:00;13.98;68.51
76384;SHT30;65204;48.606;7.598;2023-04-30T02:59:30;13.88;68.58
76384;SHT30;65204;48.606;7.598;2023-04-30T03:00:01;13.95;68.42
76384;SHT30;65204;48.606;7.598;2023-04-30T03:00:31;13.94;68.38
76384;SHT30;65204;48.606;7.598;2023-04-30T03:01:02;13.94;68.41
76384;SHT30;65204;48.606;7.598;2023-04-30T03:01:32;13.98;68.47
76384;SHT30;65204;48.606;7.598;2023-04-30T03:02:02;13.94;68.58
76384;SHT30;65204;48.606;7.598;2023-04-30T03:02:33;13.94;68.51
76384;SHT30;65204;48.606;7.598;2023-04-30T03:03:03;13.94;68.38
76384;SHT30;65204;48.606;7.598;2023-04-30T03:03:33;13.86;68.83
76384;SHT30;65204;48.606;7.598;2023-04-30T03:04:04;13.86;68.63
76384;SHT30;65204;48.606;7.598;2023-04-30T03:04:34;13.89;68.49
76384;SHT30;65204;48.606;7.598;2023-04-30T03:05:05;13.90;68.59
76384;SHT30;65204;48.606;7.598;2023-04-30T03:05:35;13.88;68.36
76384;SHT30;65204;48.606;7.598;2023-04-30T03:06:05;13.96;68.47
76384;SHT30;65204;48.606;7.598;2023-04-30T03:06:36;13.95;68.34
76384;SHT30;65204;48.606;7.598;2023-04-30T03:07:06;13.95;68.38
76384;SHT30;65204;48.606;7.598;2023-04-30T03:07:37;13.96;68.32
76384;SHT30;65204;48.606;7.598;2023-04-30T03:08:07;13.94;68.47
76384;SHT30;65204;48.606;7.598;2023-04-30T03:08:37;13.92;68.38
76384;SHT30;65204;48.606;7.598;2023-04-30T03:09:08;13.92;68.58
76384;SHT30;65204;48.606;7.598;2023-04-30T03:09:38;13.94;68.62
76384;SHT30;65204;48.606;7.598;2023-04-30T03:10:09;13.92;68.49
76384;SHT30;65204;48.606;7.598;2023-04-30T03:10:39;13.95;68.41
76384;SHT30;65204;48.606;7.598;2023-04-30T03:11:10;13.90;68.15
76384;SHT30;65204;48.606;7.598;2023-04-30T03:11:40;13.88;68.48
76384;SHT30;65204;48.606;7.598;2023-04-30T03:12:11;13.88;68.63
76384;SHT30;65204;48.606;7.598;2023-04-30T03:12:41;13.88;68.66
76384;SHT30;65204;48.606;7.598;2023-04-30T03:13:11;13.88;68.49
76384;SHT30;65204;48.606;7.598;2023-04-30T03:13:42;13.92;68.56
76384;SHT30;65204;48.606;7.598;2023-04-30T03:14:12;13.95;68.60
76384;SHT30;65204;48.606;7.598;2023-04-30T03:14:43;13.94;68.48
76384;SHT30;65204;48.606;7.598;2023-04-30T03:15:13;13.94;68.28
76384;SHT30;65204;48.606;7.598;2023-04-30T03:15:43;13.95;68.29
76384;SHT30;65204;48.606;7.598;2023-04-30T03:16:14;13.95;68.13
76384;SHT30;65204;48.606;7.598;2023-04-30T03:16:44;13.94;68.13
76384;SHT30;65204;48.606;7.598;2023-04-30T03:17:14;13.98;68.24
76384;SHT30;65204;48.606;7.598;2023-04-30T03:17:45;13.94;68.34
76384;SHT30;65204;48.606;7.598;2023-04-30T03:18:16;13.94;68.15
76384;SHT30;65204;48.606;7.598;2023-04-30T03:18:47;13.95;68.21
76384;SHT30;65204;48.606;7.598;2023-04-30T03:19:17;13.74;68.32
76384;SHT30;65204;48.606;7.598;2023-04-30T03:19:51;13.88;68.47
76384;SHT30;65204;48.606;7.598;2023-04-30T03:20:21;13.85;68.43
76384;SHT30;65204;48.606;7.598;2023-04-30T03:20:51;13.90;68.32
76384;SHT30;65204;48.606;7.598;2023-04-30T03:21:22;13.86;68.30
76384;SHT30;65204;48.606;7.598;2023-04-30T03:21:53;13.92;68.27
76384;SHT30;65204;48.606;7.598;2023-04-30T03:22:24;13.89;68.30
76384;SHT30;65204;48.606;7.598;2023-04-30T03:22:55;13.89;68.40
76384;SHT30;65204;48.606;7.598;2023-04-30T03:23:26;13.82;68.41
76384;SHT30;65204;48.606;7.598;2023-04-30T03:23:57;13.81;68.57
76384;SHT30;65204;48.606;7.598;2023-04-30T03:24:27;13.82;68.69
76384;SHT30;65204;48.606;7.598;2023-04-30T03:24:57;13.85;68.45
76384;SHT30;65204;48.606;7.598;2023-04-30T03:25:28;13.85;68.40
76384;SHT30;65204;48.606;7.598;2023-04-30T03:25:58;13.86;68.45
76384;SHT30;65204;48.606;7.598;2023-04-30T03:26:28;13.85;68.43
76384;SHT30;65204;48.606;7.598;2023-04-30T03:26:59;13.82;68.42
76384;SHT30;65204;48.606;7.598;2023-04-30T03:27:31;13.81;68.51
76384;SHT30;65204;48.606;7.598;2023-04-30T03:28:01;13.78;68.73
76384;SHT30;65204;48.606;7.598;2023-04-30T03:28:31;13.76;68.83
76384;SHT30;65204;48.606;7.598;2023-04-30T03:29:02;13.81;68.84
76384;SHT30;65204;48.606;7.598;2023-04-30T03:29:32;13.76;68.72
76384;SHT30;65204;48.606;7.598;2023-04-30T03:30:03;13.79;68.63
76384;SHT30;65204;48.606;7.598;2023-04-30T03:30:33;13.78;68.67
76384;SHT30;65204;48.606;7.598;2023-04-30T03:31:03;13.79;68.68
76384;SHT30;65204;48.606;7.598;2023-04-30T03:31:36;13.78;68.69
76384;SHT30;65204;48.606;7.598;2023-04-30T03:32:07;13.78;68.64
76384;SHT30;65204;48.606;7.598;2023-04-30T03:32:37;13.82;68.60
76384;SHT30;65204;48.606;7.598;2023-04-30T03:33:08;13.82;68.67
76384;SHT30;65204;48.606;7.598;2023-04-30T03:33:38;13.79;68.51
76384;SHT30;65204;48.606;7.598;2023-04-30T03:34:08;13.81;68.47
76384;SHT30;65204;48.606;7.598;2023-04-30T03:34:39;13.78;68.67
76384;SHT30;65204;48.606;7.598;2023-04-30T03:35:09;13.74;68.67